Time;durP1;ratioP1;P1;durP2;ratioP2;P2;SDS_P1;SDS_P2;PMS_P1;PMS_P2;Temp;Humidity;BMP_temperature;BMP_pressure;BME280_temperature;BME280_humidity;BME280_pressure;Samples;Min_cycle;Max_cycle;Signal;HPM_P1;HPM_P2
2022/01/31 00:01:23;;;;;;;16.05;6.20;;;;;;;;;;5074205;28;20151;-69
2022/01/31 00:03:50;;;;;;;15.90;6.57;;;;;;;;;;5073501;28;20049;-68
2022/01/31 00:06:16;;;;;;;18.17;6.75;;;;;;;;;;5073264;28;20053;-69
2022/01/31 00:08:45;;;;;;;19.20;8.18;;;;;;;;;;5070472;28;20075;-68
2022/01/31 00:11:11;;;;;;;20.33;7.90;;;;;;;;;;5073871;28;20414;-68
2022/01/31 00:13:43;;;;;;;17.58;5.75;;;;;;;;;;5072935;28;20091;-67
2022/01/31 00:16:21;;;;;;;10.85;6.35;;;;;;;;;;5073052;28;20059;-67
2022/01/31 00:18:47;;;;;;;20.42;6.97;;;;;;;;;;5073508;28;20056;-69
2022/01/31 00:21:14;;;;;;;18.98;6.80;;;;;;;;;;5073643;28;20057;-68
2022/01/31 00:23:40;;;;;;;23.83;7.15;;;;;;;;;;5072668;28;20061;-67
2022/01/31 00:26:06;;;;;;;18.63;6.72;;;;;;;;;;5074074;28;20053;-68
2022/01/31 00:28:32;;;;;;;26.52;7.93;;;;;;;;;;5073706;28;20139;-67
2022/01/31 00:30:59;;;;;;;23.33;7.10;;;;;;;;;;5073714;28;20072;-69
2022/01/31 00:33:25;;;;;;;23.05;6.63;;;;;;;;;;5071538;28;20052;-69
2022/01/31 00:35:51;;;;;;;15.38;6.22;;;;;;;;;;5073692;28;20520;-69
2022/01/31 00:38:18;;;;;;;26.90;8.80;;;;;;;;;;5073793;28;20136;-68
2022/01/31 00:40:44;;;;;;;16.13;5.65;;;;;;;;;;5070645;28;20088;-69
2022/01/31 00:43:12;;;;;;;23.77;7.03;;;;;;;;;;5070075;28;20053;-69
2022/01/31 00:45:46;;;;;;;18.60;6.20;;;;;;;;;;5072160;28;20037;-69
2022/01/31 00:48:18;;;;;;;28.85;8.05;;;;;;;;;;5073308;28;20075;-70
2022/01/31 00:50:47;;;;;;;17.98;6.75;;;;;;;;;;5072359;28;20585;-68
2022/01/31 00:53:14;;;;;;;17.48;6.80;;;;;;;;;;5073443;28;20053;-70
2022/01/31 00:55:40;;;;;;;21.20;6.72;;;;;;;;;;5073149;28;20071;-70
2022/01/31 00:58:07;;;;;;;22.83;6.40;;;;;;;;;;5072968;28;20053;-69
2022/01/31 01:00:33;;;;;;;20.77;6.10;;;;;;;;;;5071668;28;20053;-70
2022/01/31 01:03:00;;;;;;;20.77;6.90;;;;;;;;;;5073627;28;20089;-67
2022/01/31 01:05:26;;;;;;;16.30;7.03;;;;;;;;;;5073079;28;20049;-67
2022/01/31 01:07:52;;;;;;;17.63;7.20;;;;;;;;;;5073243;28;20497;-68
2022/01/31 01:10:19;;;;;;;17.98;8.13;;;;;;;;;;5072664;28;20056;-69
2022/01/31 01:12:48;;;;;;;17.35;7.18;;;;;;;;;;5073154;28;20063;-71
2022/01/31 01:15:15;;;;;;;19.90;7.88;;;;;;;;;;5072668;28;20057;-69
2022/01/31 01:17:42;;;;;;;13.80;6.20;;;;;;;;;;5071303;28;20111;-70
2022/01/31 01:20:09;;;;;;;15.95;6.03;;;;;;;;;;5070814;28;20136;-72
2022/01/31 01:22:35;;;;;;;13.52;6.10;;;;;;;;;;5072342;28;20058;-70
2022/01/31 01:25:04;;;;;;;17.00;6.53;;;;;;;;;;5071735;28;20045;-71
2022/01/31 01:27:31;;;;;;;15.00;6.05;;;;;;;;;;5070617;28;20191;-72
2022/01/31 01:29:57;;;;;;;9.50;5.95;;;;;;;;;;5069364;28;20093;-71
2022/01/31 01:32:26;;;;;;;16.42;6.15;;;;;;;;;;5070826;28;20132;-70
2022/01/31 01:34:53;;;;;;;13.10;5.25;;;;;;;;;;5070351;28;20152;-72
2022/01/31 01:37:20;;;;;;;13.57;6.30;;;;;;;;;;5069144;28;20052;-72
2022/01/31 01:39:46;;;;;;;11.00;5.47;;;;;;;;;;5071253;28;20059;-73
2022/01/31 01:42:13;;;;;;;13.65;6.57;;;;;;;;;;5069790;28;20059;-72
2022/01/31 01:44:45;;;;;;;11.48;6.25;;;;;;;;;;5071047;28;20092;-74
2022/01/31 01:47:14;;;;;;;14.95;5.63;;;;;;;;;;5070548;28;20145;-73
2022/01/31 01:49:40;;;;;;;8.98;5.32;;;;;;;;;;5071137;28;20498;-73
2022/01/31 01:52:06;;;;;;;13.80;6.45;;;;;;;;;;5069326;28;20085;-72
2022/01/31 01:54:33;;;;;;;13.75;6.13;;;;;;;;;;5068813;28;20155;-72
2022/01/31 01:57:02;;;;;;;14.70;6.13;;;;;;;;;;5070667;28;20048;-73
2022/01/31 01:59:29;;;;;;;14.25;6.25;;;;;;;;;;5070385;28;20478;-73
2022/01/31 02:01:55;;;;;;;12.90;6.45;;;;;;;;;;5068237;28;20147;-73
2022/01/31 02:04:22;;;;;;;12.95;6.35;;;;;;;;;;5070845;28;20049;-75
2022/01/31 02:06:48;;;;;;;15.60;6.40;;;;;;;;;;5070433;28;20049;-72
2022/01/31 02:09:16;;;;;;;14.77;6.22;;;;;;;;;;5070333;28;20438;-74
2022/01/31 02:11:43;;;;;;;12.35;5.88;;;;;;;;;;5071179;28;20128;-74
2022/01/31 02:14:09;;;;;;;14.88;6.32;;;;;;;;;;5070771;28;20056;-76
2022/01/31 02:16:36;;;;;;;9.93;6.10;;;;;;;;;;5070812;28;20053;-74
2022/01/31 02:19:02;;;;;;;13.82;6.07;;;;;;;;;;5070569;28;20059;-74
2022/01/31 02:21:29;;;;;;;14.55;5.57;;;;;;;;;;5070592;28;20057;-72
2022/01/31 02:23:55;;;;;;;14.18;6.03;;;;;;;;;;5070096;28;20410;-72
2022/01/31 02:26:21;;;;;;;12.57;5.60;;;;;;;;;;5070457;28;20556;-75
2022/01/31 02:28:48;;;;;;;10.18;6.03;;;;;;;;;;5070476;28;20143;-72
2022/01/31 02:31:14;;;;;;;15.57;6.15;;;;;;;;;;5069292;28;20045;-75
2022/01/31 02:33:41;;;;;;;13.95;6.55;;;;;;;;;;5070577;28;20099;-73
2022/01/31 02:36:08;;;;;;;16.10;6.68;;;;;;;;;;5070306;28;20072;-72
2022/01/31 02:38:34;;;;;;;14.02;6.88;;;;;;;;;;5070569;28;20052;-74
2022/01/31 02:41:01;;;;;;;19.73;6.03;;;;;;;;;;5072729;28;20060;-72
2022/01/31 02:43:31;;;;;;;15.23;3.92;;;;;;;;;;5074081;28;20497;-72
2022/01/31 02:45:58;;;;;;;13.98;5.07;;;;;;;;;;5073655;28;20071;-74
2022/01/31 02:48:27;;;;;;;18.85;5.68;;;;;;;;;;5073908;28;20060;-73
2022/01/31 02:50:54;;;;;;;20.73;6.00;;;;;;;;;;5073480;28;20055;-72
2022/01/31 02:53:27;;;;;;;19.00;4.90;;;;;;;;;;5074014;28;20049;-75
2022/01/31 02:55:55;;;;;;;25.58;3.95;;;;;;;;;;5073664;28;20502;-74
2022/01/31 02:58:21;;;;;;;20.23;3.78;;;;;;;;;;5074900;28;20059;-72
2022/01/31 03:00:48;;;;;;;19.48;4.40;;;;;;;;;;5073680;28;20136;-73
2022/01/31 03:03:14;;;;;;;19.98;4.43;;;;;;;;;;5074505;28;20045;-72
2022/01/31 03:05:41;;;;;;;13.82;2.90;;;;;;;;;;5075243;28;20537;-73
2022/01/31 03:08:07;;;;;;;15.27;4.28;;;;;;;;;;5073699;28;20068;-73
2022/01/31 03:10:34;;;;;;;15.68;3.65;;;;;;;;;;5072902;28;20517;-73
2022/01/31 03:13:03;;;;;;;13.90;3.20;;;;;;;;;;5073693;28;20175;-73
2022/01/31 03:15:30;;;;;;;19.05;4.25;;;;;;;;;;5073476;28;20060;-73
2022/01/31 03:17:56;;;;;;;17.45;4.28;;;;;;;;;;5073796;28;20049;-74
2022/01/31 03:20:23;;;;;;;19.45;3.33;;;;;;;;;;5073372;28;20057;-71
2022/01/31 03:22:50;;;;;;;16.35;3.05;;;;;;;;;;5073253;28;20053;-73
2022/01/31 03:25:17;;;;;;;16.38;3.08;;;;;;;;;;5072917;28;20063;-73
2022/01/31 03:27:44;;;;;;;17.65;3.40;;;;;;;;;;5073905;28;20053;-73
2022/01/31 03:30:13;;;;;;;10.45;3.35;;;;;;;;;;5072115;28;20060;-70
2022/01/31 03:32:40;;;;;;;14.23;2.55;;;;;;;;;;5073276;28;20144;-72
2022/01/31 03:35:07;;;;;;;15.43;2.90;;;;;;;;;;5073326;28;20160;-72
2022/01/31 03:37:34;;;;;;;10.50;2.50;;;;;;;;;;5072873;28;20127;-73
2022/01/31 03:40:00;;;;;;;11.05;2.75;;;;;;;;;;5073018;28;20057;-71
2022/01/31 03:42:27;;;;;;;17.25;4.20;;;;;;;;;;5072895;28;20056;-71
2022/01/31 03:44:53;;;;;;;18.95;3.22;;;;;;;;;;5072081;28;20052;-72
2022/01/31 03:47:21;;;;;;;20.17;3.40;;;;;;;;;;5072033;28;20081;-71
2022/01/31 03:49:48;;;;;;;10.80;2.55;;;;;;;;;;5072960;28;20053;-73
2022/01/31 03:52:15;;;;;;;11.77;3.45;;;;;;;;;;5072924;28;20049;-73
2022/01/31 03:54:44;;;;;;;11.13;3.00;;;;;;;;;;5073349;28;20053;-72
2022/01/31 03:57:14;;;;;;;17.13;3.33;;;;;;;;;;5073365;28;20057;-71
2022/01/31 03:59:40;;;;;;;17.45;2.55;;;;;;;;;;5073057;28;20063;-72
2022/01/31 04:02:07;;;;;;;14.90;3.05;;;;;;;;;;5072173;28;20059;-72
2022/01/31 04:04:35;;;;;;;13.45;2.50;;;;;;;;;;5072744;28;20534;-72
2022/01/31 04:07:02;;;;;;;13.57;2.95;;;;;;;;;;5072764;28;20103;-70
2022/01/31 04:09:29;;;;;;;20.75;2.90;;;;;;;;;;5072933;28;20056;-71
2022/01/31 04:11:55;;;;;;;16.83;3.47;;;;;;;;;;5072998;28;20211;-71
2022/01/31 04:14:25;;;;;;;12.32;2.90;;;;;;;;;;5073450;28;20057;-71
2022/01/31 04:16:53;;;;;;;13.95;2.97;;;;;;;;;;5072713;28;20103;-72
2022/01/31 04:19:20;;;;;;;20.77;3.55;;;;;;;;;;5073478;28;20489;-72
2022/01/31 04:21:47;;;;;;;13.27;3.00;;;;;;;;;;5073859;28;20144;-70
2022/01/31 04:24:19;;;;;;;12.10;3.00;;;;;;;;;;5073176;28;20645;-70
2022/01/31 04:26:56;;;;;;;15.23;3.25;;;;;;;;;;5071330;28;20107;-72
2022/01/31 04:29:24;;;;;;;19.52;2.72;;;;;;;;;;5072464;28;20072;-69
2022/01/31 04:31:51;;;;;;;12.45;2.65;;;;;;;;;;5071370;28;20065;-70
2022/01/31 04:34:17;;;;;;;12.70;2.85;;;;;;;;;;5071565;28;20049;-75
2022/01/31 04:36:45;;;;;;;14.15;2.60;;;;;;;;;;5069640;28;20411;-71
2022/01/31 04:39:16;;;;;;;18.20;2.72;;;;;;;;;;5072360;28;20067;-71
2022/01/31 04:41:43;;;;;;;18.15;2.88;;;;;;;;;;5071960;28;20052;-72
2022/01/31 04:44:10;;;;;;;13.52;3.60;;;;;;;;;;5072807;28;20144;-70
2022/01/31 04:46:37;;;;;;;13.95;2.47;;;;;;;;;;5072156;28;20056;-70
2022/01/31 04:49:04;;;;;;;7.47;3.03;;;;;;;;;;5071310;28;20057;-72
2022/01/31 04:51:30;;;;;;;19.20;3.42;;;;;;;;;;5072143;28;20057;-71
2022/01/31 04:53:56;;;;;;;27.13;4.28;;;;;;;;;;5059644;28;20505;-71
2022/01/31 04:56:23;;;;;;;13.00;2.90;;;;;;;;;;5050404;28;20081;-73
2022/01/31 04:58:49;;;;;;;16.85;3.25;;;;;;;;;;5069206;28;20085;-72
2022/01/31 05:01:15;;;;;;;13.52;3.15;;;;;;;;;;5068005;28;20087;-71
2022/01/31 05:03:46;;;;;;;13.95;3.45;;;;;;;;;;5081441;28;20053;-71
2022/01/31 05:06:16;;;;;;;25.20;4.20;;;;;;;;;;5072499;28;20057;-72
2022/01/31 05:08:42;;;;;;;16.27;3.15;;;;;;;;;;5070630;28;20091;-72
2022/01/31 05:11:11;;;;;;;18.30;4.00;;;;;;;;;;5071882;28;21039;-73
2022/01/31 05:13:37;;;;;;;14.07;3.03;;;;;;;;;;5071637;28;20055;-71
2022/01/31 05:16:04;;;;;;;7.28;1.73;;;;;;;;;;5070435;28;20495;-73
2022/01/31 05:18:31;;;;;;;9.50;2.67;;;;;;;;;;5072303;28;20053;-73
2022/01/31 05:20:57;;;;;;;9.45;2.90;;;;;;;;;;5068661;28;20057;-72
2022/01/31 05:23:23;;;;;;;9.65;2.20;;;;;;;;;;5071425;28;20052;-71
2022/01/31 05:25:50;;;;;;;18.05;3.25;;;;;;;;;;5068080;28;20145;-72
2022/01/31 05:28:19;;;;;;;14.63;2.35;;;;;;;;;;5052968;28;20050;-74
2022/01/31 05:30:46;;;;;;;9.55;2.10;;;;;;;;;;5053084;28;20153;-74
2022/01/31 05:33:12;;;;;;;10.00;2.42;;;;;;;;;;5061666;28;20053;-73
2022/01/31 05:35:38;;;;;;;8.93;2.13;;;;;;;;;;5068445;28;20052;-74
2022/01/31 05:38:05;;;;;;;11.82;1.92;;;;;;;;;;5052410;28;20555;-73
2022/01/31 05:40:32;;;;;;;7.85;1.77;;;;;;;;;;5056048;28;20403;-74
2022/01/31 05:42:59;;;;;;;15.68;2.78;;;;;;;;;;5072848;28;20051;-73
2022/01/31 05:45:25;;;;;;;8.90;2.08;;;;;;;;;;5059392;28;20053;-74
2022/01/31 05:47:53;;;;;;;11.90;2.30;;;;;;;;;;5067462;28;20132;-71
2022/01/31 05:50:20;;;;;;;15.05;2.50;;;;;;;;;;5068848;28;20131;-72
2022/01/31 05:52:46;;;;;;;14.30;2.90;;;;;;;;;;5060077;28;20049;-73
2022/01/31 05:55:13;;;;;;;17.92;2.67;;;;;;;;;;5052751;28;20841;-73
2022/01/31 05:57:41;;;;;;;29.83;3.95;;;;;;;;;;5071888;28;20057;-73
2022/01/31 06:00:08;;;;;;;10.43;2.45;;;;;;;;;;5063779;28;20049;-74
2022/01/31 06:02:35;;;;;;;9.73;2.45;;;;;;;;;;5064771;28;20045;-72
2022/01/31 06:05:02;;;;;;;19.67;4.35;;;;;;;;;;5069723;28;20052;-72
2022/01/31 06:07:29;;;;;;;15.85;3.08;;;;;;;;;;5054540;28;20060;-72
2022/01/31 06:09:55;;;;;;;15.45;2.80;;;;;;;;;;5054515;28;20458;-73
2022/01/31 06:12:22;;;;;;;11.18;3.30;;;;;;;;;;5069473;28;20061;-73
2022/01/31 06:14:48;;;;;;;14.43;2.45;;;;;;;;;;5065939;28;20081;-74
2022/01/31 06:17:17;;;;;;;12.43;2.30;;;;;;;;;;5055776;28;20152;-72
2022/01/31 06:19:44;;;;;;;17.10;2.53;;;;;;;;;;5057488;28;20054;-74
2022/01/31 06:22:10;;;;;;;18.48;2.85;;;;;;;;;;5055922;28;20156;-74
2022/01/31 06:24:36;;;;;;;22.00;3.97;;;;;;;;;;5056625;28;20057;-74
2022/01/31 06:27:04;;;;;;;11.30;3.00;;;;;;;;;;5060855;28;20525;-72
2022/01/31 06:29:30;;;;;;;15.82;3.47;;;;;;;;;;5067746;28;20396;-73
2022/01/31 06:31:56;;;;;;;18.65;2.85;;;;;;;;;;5070684;28;20160;-75
2022/01/31 06:34:23;;;;;;;16.40;2.40;;;;;;;;;;5073011;28;20522;-75
2022/01/31 06:36:49;;;;;;;10.52;2.60;;;;;;;;;;5074668;28;20059;-71
2022/01/31 06:39:22;;;;;;;11.05;3.33;;;;;;;;;;5074958;28;20421;-72
2022/01/31 06:41:48;;;;;;;18.45;2.20;;;;;;;;;;5065784;28;20060;-71
2022/01/31 06:44:15;;;;;;;9.40;2.08;;;;;;;;;;5074706;28;20180;-73
2022/01/31 06:46:41;;;;;;;14.65;2.33;;;;;;;;;;5073113;28;20494;-74
2022/01/31 06:49:08;;;;;;;12.95;2.47;;;;;;;;;;5073331;28;20140;-73
2022/01/31 06:51:34;;;;;;;15.15;2.40;;;;;;;;;;5071620;28;20486;-71
2022/01/31 06:54:01;;;;;;;17.40;2.42;;;;;;;;;;5069219;28;20064;-70
2022/01/31 06:56:34;;;;;;;11.45;2.35;;;;;;;;;;5073030;28;20121;-73
2022/01/31 06:59:01;;;;;;;12.20;2.13;;;;;;;;;;5066376;28;20052;-71
2022/01/31 07:01:27;;;;;;;15.50;3.55;;;;;;;;;;5070791;28;20059;-72
2022/01/31 07:03:54;;;;;;;10.60;1.95;;;;;;;;;;5073855;28;20045;-72
2022/01/31 07:06:21;;;;;;;19.50;2.90;;;;;;;;;;5070427;28;20079;-73
2022/01/31 07:08:48;;;;;;;13.60;2.67;;;;;;;;;;5074169;28;20128;-71
2022/01/31 07:11:16;;;;;;;11.32;2.17;;;;;;;;;;5072611;28;20057;-70
2022/01/31 07:13:44;;;;;;;15.68;2.38;;;;;;;;;;5074557;28;20084;-70
2022/01/31 07:16:10;;;;;;;18.67;2.63;;;;;;;;;;5070537;28;20051;-71
2022/01/31 07:18:37;;;;;;;15.70;3.05;;;;;;;;;;5074398;28;20139;-71
2022/01/31 07:21:04;;;;;;;11.38;2.25;;;;;;;;;;5057167;28;20149;-75
2022/01/31 07:26:24;;;;;;;15.75;2.75;;;;;;;;;;5045081;28;20056;-72
2022/01/31 07:28:52;;;;;;;18.85;3.90;;;;;;;;;;5066860;28;20135;-71
2022/01/31 07:31:18;;;;;;;9.90;2.67;;;;;;;;;;5059953;28;20056;-74
2022/01/31 07:33:45;;;;;;;22.63;3.88;;;;;;;;;;5067345;28;20061;-74
2022/01/31 07:36:11;;;;;;;21.42;3.42;;;;;;;;;;5071120;28;20499;-74
2022/01/31 07:38:38;;;;;;;19.45;3.78;;;;;;;;;;5070544;28;20052;-73
2022/01/31 07:41:04;;;;;;;18.83;2.95;;;;;;;;;;5062497;28;20512;-70
2022/01/31 07:43:32;;;;;;;24.30;3.95;;;;;;;;;;5068930;28;20465;-71
2022/01/31 07:45:59;;;;;;;24.63;5.20;;;;;;;;;;5073727;28;20057;-72
2022/01/31 07:48:29;;;;;;;26.55;4.70;;;;;;;;;;5072276;28;20061;-71
2022/01/31 07:50:55;;;;;;;11.68;2.75;;;;;;;;;;5067584;28;20053;-71
2022/01/31 07:53:21;;;;;;;21.83;2.90;;;;;;;;;;5065861;28;20058;-71
2022/01/31 07:55:48;;;;;;;13.00;3.53;;;;;;;;;;5070960;28;20049;-71
2022/01/31 07:58:14;;;;;;;24.17;3.00;;;;;;;;;;5067974;28;20075;-72
2022/01/31 08:00:43;;;;;;;18.65;4.00;;;;;;;;;;5064113;28;20130;-71
2022/01/31 08:03:09;;;;;;;19.33;3.15;;;;;;;;;;5072148;28;20057;-73
2022/01/31 08:05:36;;;;;;;18.52;3.75;;;;;;;;;;5066896;28;20058;-71
2022/01/31 08:08:02;;;;;;;17.30;2.85;;;;;;;;;;5062927;28;20056;-75
2022/01/31 08:10:31;;;;;;;23.40;3.53;;;;;;;;;;5067480;28;20087;-72
2022/01/31 08:13:00;;;;;;;17.20;3.83;;;;;;;;;;5056084;28;20053;-71
2022/01/31 08:15:29;;;;;;;22.73;3.78;;;;;;;;;;5065941;28;20068;-74
2022/01/31 08:17:55;;;;;;;17.75;2.58;;;;;;;;;;5060944;28;20140;-72
2022/01/31 08:20:22;;;;;;;22.02;4.40;;;;;;;;;;5064436;28;20067;-72
2022/01/31 08:22:48;;;;;;;26.83;3.38;;;;;;;;;;5069988;28;20060;-71
2022/01/31 08:25:14;;;;;;;17.30;3.67;;;;;;;;;;5070180;28;20144;-71
2022/01/31 08:27:47;;;;;;;20.17;3.90;;;;;;;;;;5064500;28;20569;-70
2022/01/31 08:30:20;;;;;;;18.48;4.40;;;;;;;;;;5061826;28;20084;-73
2022/01/31 08:32:58;;;;;;;19.10;2.92;;;;;;;;;;5061151;28;20955;-71
2022/01/31 08:38:09;;;;;;;18.73;2.85;;;;;;;;;;5068685;28;20148;-71
2022/01/31 08:40:36;;;;;;;12.38;3.13;;;;;;;;;;5068004;28;20155;-71
2022/01/31 08:43:03;;;;;;;18.98;3.28;;;;;;;;;;5062053;28;20124;-70
2022/01/31 08:45:29;;;;;;;15.43;4.15;;;;;;;;;;5064227;28;20056;-70
2022/01/31 08:47:56;;;;;;;23.13;3.65;;;;;;;;;;5061088;28;20084;-71
2022/01/31 08:50:23;;;;;;;20.13;3.28;;;;;;;;;;5064609;28;20454;-70
2022/01/31 08:52:50;;;;;;;26.45;5.43;;;;;;;;;;5063814;28;20059;-73
2022/01/31 08:55:17;;;;;;;29.98;4.80;;;;;;;;;;5070798;28;20141;-71
2022/01/31 08:57:43;;;;;;;24.20;4.25;;;;;;;;;;5063513;28;20135;-71
2022/01/31 09:00:10;;;;;;;28.20;4.60;;;;;;;;;;5061094;28;20502;-73
2022/01/31 09:02:39;;;;;;;20.23;5.15;;;;;;;;;;5063692;28;20145;-71
2022/01/31 09:05:07;;;;;;;33.45;4.57;;;;;;;;;;5058937;28;20053;-71
2022/01/31 09:07:33;;;;;;;20.33;3.78;;;;;;;;;;5064049;28;20056;-71
2022/01/31 09:10:01;;;;;;;26.17;5.18;;;;;;;;;;5062796;28;20061;-70
2022/01/31 09:12:31;;;;;;;23.38;5.00;;;;;;;;;;5072973;28;20055;-71
2022/01/31 09:14:57;;;;;;;21.95;3.00;;;;;;;;;;5070195;28;20059;-69
2022/01/31 09:17:23;;;;;;;21.30;3.88;;;;;;;;;;5069393;28;20556;-69
2022/01/31 09:19:50;;;;;;;22.83;4.00;;;;;;;;;;5072993;28;20057;-71
2022/01/31 09:22:16;;;;;;;15.05;4.82;;;;;;;;;;5076329;28;20064;-71
2022/01/31 09:24:43;;;;;;;20.85;3.92;;;;;;;;;;5093200;28;20139;-70
2022/01/31 09:27:12;;;;;;;18.50;3.45;;;;;;;;;;5069636;28;20057;-73
2022/01/31 09:29:39;;;;;;;23.67;4.07;;;;;;;;;;5060895;28;20219;-70
2022/01/31 09:32:05;;;;;;;28.67;3.92;;;;;;;;;;5059826;28;20056;-71
2022/01/31 09:34:32;;;;;;;15.43;4.82;;;;;;;;;;5064650;28;20049;-72
2022/01/31 09:36:59;;;;;;;39.83;4.80;;;;;;;;;;5073082;28;20548;-70
2022/01/31 09:39:26;;;;;;;25.65;5.15;;;;;;;;;;5075447;28;20148;-70
2022/01/31 09:41:56;;;;;;;30.75;5.32;;;;;;;;;;5071505;28;20054;-68
2022/01/31 09:45:15;;;;;;;32.58;5.47;;;;;;;;;;5060912;28;20091;-69
2022/01/31 09:49:45;;;;;;;36.55;5.93;;;;;;;;;;5062714;28;20058;-70
2022/01/31 09:52:13;;;;;;;41.10;6.50;;;;;;;;;;5068066;28;20131;-70
2022/01/31 09:54:40;;;;;;;22.42;4.70;;;;;;;;;;5072489;28;20085;-72
2022/01/31 09:57:07;;;;;;;32.72;5.60;;;;;;;;;;5074704;28;20059;-71
2022/01/31 09:59:33;;;;;;;29.15;5.55;;;;;;;;;;5075735;28;20059;-70
2022/01/31 10:02:07;;;;;;;34.25;6.47;;;;;;;;;;5070718;28;20508;-73
2022/01/31 10:04:36;;;;;;;35.40;5.65;;;;;;;;;;5070269;28;20057;-70
2022/01/31 10:07:03;;;;;;;26.75;5.20;;;;;;;;;;5074447;28;20140;-70
2022/01/31 10:09:30;;;;;;;30.08;5.85;;;;;;;;;;5071421;28;20581;-70
2022/01/31 10:17:38;;;;;;;36.28;5.50;;;;;;;;;;5073896;28;20469;-72
2022/01/31 10:20:07;;;;;;;27.15;5.57;;;;;;;;;;5066113;28;20056;-71
2022/01/31 10:22:35;;;;;;;25.63;5.57;;;;;;;;;;5073598;28;20508;-70
2022/01/31 10:25:05;;;;;;;36.47;8.05;;;;;;;;;;5072727;28;20057;-71
2022/01/31 10:27:34;;;;;;;22.85;4.60;;;;;;;;;;5073002;28;20567;-70
2022/01/31 10:30:06;;;;;;;24.88;3.72;;;;;;;;;;5074914;28;20045;-72
2022/01/31 10:32:36;;;;;;;25.30;5.43;;;;;;;;;;5071452;28;20566;-72
2022/01/31 10:35:04;;;;;;;38.67;7.07;;;;;;;;;;5069725;28;20144;-73
2022/01/31 10:37:32;;;;;;;24.02;4.07;;;;;;;;;;5065578;28;20085;-72
2022/01/31 10:51:09;;;;;;;30.08;4.97;;;;;;;;;;5069473;28;20131;-73
2022/01/31 10:53:43;;;;;;;26.63;4.53;;;;;;;;;;5071045;28;20057;-73
2022/01/31 10:56:09;;;;;;;25.40;5.00;;;;;;;;;;5072411;28;20150;-71
2022/01/31 10:58:52;;;;;;;19.65;4.43;;;;;;;;;;5073318;28;20060;-71
2022/01/31 11:01:19;;;;;;;23.25;3.67;;;;;;;;;;5080571;28;20048;-71
2022/01/31 11:03:46;;;;;;;25.98;4.82;;;;;;;;;;5074546;28;20049;-72
2022/01/31 11:06:12;;;;;;;28.25;5.07;;;;;;;;;;5074423;28;20061;-71
2022/01/31 11:08:39;;;;;;;31.90;3.80;;;;;;;;;;5069082;28;20060;-71
2022/01/31 11:11:05;;;;;;;26.60;6.13;;;;;;;;;;5071388;28;20057;-71
2022/01/31 11:13:33;;;;;;;27.38;5.20;;;;;;;;;;5072618;28;20084;-70
2022/01/31 11:16:00;;;;;;;24.17;4.47;;;;;;;;;;5072324;28;20053;-70
2022/01/31 11:18:28;;;;;;;28.73;5.45;;;;;;;;;;5075103;28;20049;-69
2022/01/31 11:20:59;;;;;;;31.80;5.50;;;;;;;;;;5074811;28;20049;-71
2022/01/31 11:23:27;;;;;;;31.05;4.72;;;;;;;;;;5073232;28;20045;-71
2022/01/31 11:25:55;;;;;;;28.58;4.93;;;;;;;;;;5070508;28;20144;-70
2022/01/31 11:28:22;;;;;;;29.30;5.22;;;;;;;;;;5073773;28;20071;-71
2022/01/31 11:30:51;;;;;;;27.55;4.85;;;;;;;;;;5072435;28;20045;-70
2022/01/31 11:33:18;;;;;;;34.05;4.65;;;;;;;;;;5072223;28;20585;-70
2022/01/31 11:35:44;;;;;;;28.98;5.22;;;;;;;;;;5073417;28;20056;-69
2022/01/31 11:38:10;;;;;;;20.45;4.28;;;;;;;;;;5073527;28;20044;-71
2022/01/31 11:40:37;;;;;;;24.10;5.05;;;;;;;;;;5074508;28;20057;-70
2022/01/31 11:43:04;;;;;;;32.35;5.32;;;;;;;;;;5073272;28;20569;-70
2022/01/31 11:45:32;;;;;;;32.13;4.70;;;;;;;;;;5073732;28;20059;-70
2022/01/31 11:48:04;;;;;;;25.77;4.45;;;;;;;;;;5074315;28;20554;-73
2022/01/31 11:50:31;;;;;;;30.95;4.97;;;;;;;;;;5075501;28;20091;-71
2022/01/31 11:52:59;;;;;;;28.80;4.90;;;;;;;;;;5073289;28;20475;-70
2022/01/31 11:55:29;;;;;;;45.55;7.35;;;;;;;;;;5075333;28;20492;-71
2022/01/31 11:57:57;;;;;;;35.80;6.75;;;;;;;;;;5070670;28;20045;-71
2022/01/31 12:00:24;;;;;;;35.05;6.60;;;;;;;;;;5073369;28;20052;-73
2022/01/31 12:02:52;;;;;;;32.65;5.82;;;;;;;;;;5066442;28;20151;-75
2022/01/31 12:05:22;;;;;;;29.90;5.18;;;;;;;;;;5069145;28;20139;-78
2022/01/31 12:08:06;;;;;;;30.30;6.25;;;;;;;;;;5070952;28;20063;-76
2022/01/31 12:10:41;;;;;;;35.22;6.55;;;;;;;;;;5069301;28;20107;-76
2022/01/31 12:13:48;;;;;;;25.63;5.10;;;;;;;;;;5068926;28;20127;-76
2022/01/31 12:16:45;;;;;;;47.88;6.95;;;;;;;;;;5045766;28;20518;-74
2022/01/31 12:22:02;;;;;;;28.88;5.32;;;;;;;;;;5071472;28;20056;-72
2022/01/31 12:24:30;;;;;;;32.58;5.07;;;;;;;;;;5074157;28;20147;-71
2022/01/31 12:26:58;;;;;;;36.20;5.05;;;;;;;;;;5067916;28;20052;-71
2022/01/31 12:29:31;;;;;;;36.33;6.53;;;;;;;;;;5085324;28;20092;-72
2022/01/31 12:32:17;;;;;;;44.10;6.13;;;;;;;;;;5077725;28;20139;-71
2022/01/31 12:34:44;;;;;;;;;;;;;;;;;;5074505;28;20053;-71
2022/01/31 12:37:10;;;;;;;;;;;;;;;;;;5073068;28;46738;-73
2022/01/31 12:39:42;;;;;;;39.67;6.32;;;;;;;;;;5072292;28;43379;-71
2022/01/31 12:42:51;;;;;;;23.75;4.03;;;;;;;;;;5073161;28;20076;-72
2022/01/31 12:45:23;;;;;;;37.50;5.80;;;;;;;;;;5071461;28;20140;-72
2022/01/31 12:48:08;;;;;;;38.72;6.07;;;;;;;;;;5073024;28;20099;-71
2022/01/31 12:50:42;;;;;;;42.25;6.32;;;;;;;;;;5072901;28;20518;-71
2022/01/31 12:53:22;;;;;;;34.28;5.38;;;;;;;;;;5071729;28;20053;-72
2022/01/31 12:55:58;;;;;;;44.03;7.28;;;;;;;;;;5071808;28;20053;-72
2022/01/31 12:58:32;;;;;;;21.58;4.32;;;;;;;;;;5072811;28;20580;-72
2022/01/31 13:01:10;;;;;;;39.35;6.55;;;;;;;;;;5070366;28;20053;-73
2022/01/31 13:03:37;;;;;;;27.35;5.32;;;;;;;;;;5073309;28;20061;-72
2022/01/31 13:06:23;;;;;;;37.50;7.45;;;;;;;;;;5072801;28;20110;-72
2022/01/31 13:08:49;;;;;;;28.95;5.15;;;;;;;;;;5072799;28;20051;-73
2022/01/31 13:11:17;;;;;;;24.27;6.57;;;;;;;;;;5073767;28;20049;-72
2022/01/31 13:13:44;;;;;;;30.45;5.53;;;;;;;;;;5072300;28;20610;-72
2022/01/31 13:16:11;;;;;;;30.85;5.28;;;;;;;;;;5071457;28;20491;-71
2022/01/31 13:18:38;;;;;;;36.30;5.95;;;;;;;;;;5072658;28;20528;-72
2022/01/31 13:21:06;;;;;;;30.98;5.90;;;;;;;;;;5072399;28;20061;-72
2022/01/31 13:23:33;;;;;;;31.75;6.45;;;;;;;;;;5070862;28;20133;-70
2022/01/31 13:26:00;;;;;;;46.30;5.95;;;;;;;;;;5071487;28;20052;-71
2022/01/31 13:28:26;;;;;;;37.90;6.45;;;;;;;;;;5071418;28;20053;-69
2022/01/31 13:30:53;;;;;;;51.83;7.80;;;;;;;;;;5070936;28;20093;-70
2022/01/31 13:33:19;;;;;;;35.85;7.15;;;;;;;;;;5069798;28;20144;-71
2022/01/31 13:35:47;;;;;;;40.53;8.20;;;;;;;;;;5070659;28;20495;-72
2022/01/31 13:38:20;;;;;;;28.90;5.50;;;;;;;;;;5070313;28;20055;-73
2022/01/31 13:40:49;;;;;;;37.75;5.82;;;;;;;;;;5071938;28;20427;-71
2022/01/31 13:43:20;;;;;;;40.88;6.85;;;;;;;;;;5070684;28;20573;-71
2022/01/31 13:46:05;;;;;;;33.55;6.70;;;;;;;;;;5072792;28;20055;-72
2022/01/31 13:51:34;;;;;;;39.28;6.93;;;;;;;;;;5072394;28;20081;-73
2022/01/31 13:54:11;;;;;;;28.75;5.18;;;;;;;;;;5069533;28;20149;-72
2022/01/31 13:56:38;;;;;;;26.60;5.97;;;;;;;;;;5078189;28;20052;-71
2022/01/31 13:59:06;;;;;;;29.63;5.35;;;;;;;;;;5071682;28;20053;-71
2022/01/31 14:01:32;;;;;;;32.63;4.80;;;;;;;;;;5069535;28;20045;-72
2022/01/31 14:03:59;;;;;;;29.70;5.68;;;;;;;;;;5068371;28;20057;-73
2022/01/31 14:06:29;;;;;;;32.38;6.97;;;;;;;;;;5055130;28;20064;-72
2022/01/31 14:08:59;;;;;;;32.63;5.30;;;;;;;;;;5066757;28;20080;-73
2022/01/31 14:11:27;;;;;;;18.35;4.32;;;;;;;;;;5070869;28;20498;-74
2022/01/31 14:13:58;;;;;;;27.73;4.93;;;;;;;;;;5064245;28;20053;-72
2022/01/31 14:16:27;;;;;;;30.23;5.47;;;;;;;;;;5059593;28;20050;-72
2022/01/31 14:18:56;;;;;;;26.23;4.95;;;;;;;;;;5080152;28;20052;-71
2022/01/31 14:21:24;;;;;;;26.95;4.80;;;;;;;;;;5060583;28;20061;-71
2022/01/31 14:23:51;;;;;;;28.23;6.05;;;;;;;;;;5061284;28;20558;-73
2022/01/31 14:26:19;;;;;;;25.92;4.50;;;;;;;;;;5058333;28;20053;-70
2022/01/31 14:28:47;;;;;;;33.40;5.10;;;;;;;;;;5060031;28;20533;-72
2022/01/31 14:31:14;;;;;;;20.45;3.67;;;;;;;;;;5059872;28;20115;-71
2022/01/31 14:33:42;;;;;;;31.77;4.40;;;;;;;;;;5059112;28;20418;-73
2022/01/31 14:36:10;;;;;;;17.92;3.75;;;;;;;;;;5067218;28;20611;-73
2022/01/31 14:38:44;;;;;;;25.02;5.60;;;;;;;;;;5075870;28;20063;-73
2022/01/31 14:41:49;;;;;;;30.05;4.90;;;;;;;;;;5071197;28;20054;-75
2022/01/31 14:49:40;;;;;;;35.75;4.97;;;;;;;;;;5074855;28;20471;-73
2022/01/31 14:52:08;;;;;;;25.10;5.85;;;;;;;;;;5075165;28;20145;-71
2022/01/31 14:54:35;;;;;;;19.65;4.50;;;;;;;;;;5065684;28;20116;-70
2022/01/31 14:57:02;;;;;;;24.90;5.32;;;;;;;;;;5068362;28;20538;-73
2022/01/31 14:59:28;;;;;;;30.17;4.10;;;;;;;;;;5074411;28;20111;-72
2022/01/31 15:01:55;;;;;;;25.20;3.83;;;;;;;;;;5075286;28;20099;-70
2022/01/31 15:04:41;;;;;;;21.77;3.90;;;;;;;;;;5072534;28;20803;-70
2022/01/31 15:07:12;;;;;;;26.33;4.55;;;;;;;;;;5073348;28;20513;-70
2022/01/31 15:09:38;;;;;;;20.77;3.58;;;;;;;;;;5058040;28;20129;-73
2022/01/31 15:12:11;;;;;;;36.13;5.82;;;;;;;;;;5074498;28;20049;-72
2022/01/31 15:14:37;;;;;;;19.80;3.35;;;;;;;;;;5074284;28;20139;-74